sensor_id;sensor_type;location;lat;lon;timestamp;P1;durP1;ratioP1;P2;durP2;ratioP2
32812;SDS011;19162;48.254;11.454;2023-06-14T00:00:44;4.47;;;4.07;;
32812;SDS011;19162;48.254;11.454;2023-06-14T00:03:44;4.50;;;4.15;;
32812;SDS011;19162;48.254;11.454;2023-06-14T00:06:44;4.90;;;4.17;;
32812;SDS011;19162;48.254;11.454;2023-06-14T00:09:45;6.68;;;3.80;;
32812;SDS011;19162;48.254;11.454;2023-06-14T00:12:45;4.37;;;4.00;;
32812;SDS011;19162;48.254;11.454;2023-06-14T00:15:45;4.77;;;3.80;;
32812;SDS011;19162;48.254;11.454;2023-06-14T00:18:46;6.10;;;4.10;;
32812;SDS011;19162;48.254;11.454;2023-06-14T00:21:46;4.83;;;4.43;;
32812;SDS011;19162;48.254;11.454;2023-06-14T00:24:47;7.90;;;4.03;;
32812;SDS011;19162;48.254;11.454;2023-06-14T00:27:47;5.22;;;4.68;;
32812;SDS011;19162;48.254;11.454;2023-06-14T00:30:48;7.13;;;4.67;;
32812;SDS011;19162;48.254;11.454;2023-06-14T00:33:48;5.33;;;4.47;;
32812;SDS011;19162;48.254;11.454;2023-06-14T00:36:48;4.80;;;3.90;;
32812;SDS011;19162;48.254;11.454;2023-06-14T00:39:48;4.43;;;4.03;;
32812;SDS011;19162;48.254;11.454;2023-06-14T00:42:48;4.40;;;4.10;;
32812;SDS011;19162;48.254;11.454;2023-06-14T00:45:49;4.27;;;3.87;;
32812;SDS011;19162;48.254;11.454;2023-06-14T00:48:51;4.63;;;4.28;;
32812;SDS011;19162;48.254;11.454;2023-06-14T00:51:51;4.93;;;4.53;;
32812;SDS011;19162;48.254;11.454;2023-06-14T00:54:51;6.73;;;4.43;;
32812;SDS011;19162;48.254;11.454;2023-06-14T00:57:52;4.85;;;4.07;;
32812;SDS011;19162;48.254;11.454;2023-06-14T01:00:52;5.37;;;4.83;;
32812;SDS011;19162;48.254;11.454;2023-06-14T01:03:52;4.68;;;4.20;;
32812;SDS011;19162;48.254;11.454;2023-06-14T01:10:03;4.78;;;4.43;;
32812;SDS011;19162;48.254;11.454;2023-06-14T01:16:13;5.82;;;4.28;;
32812;SDS011;19162;48.254;11.454;2023-06-14T01:19:14;5.05;;;4.65;;
32812;SDS011;19162;48.254;11.454;2023-06-14T01:22:15;5.82;;;4.65;;
32812;SDS011;19162;48.254;11.454;2023-06-14T01:25:15;5.07;;;4.57;;
32812;SDS011;19162;48.254;11.454;2023-06-14T01:28:16;4.68;;;4.22;;
32812;SDS011;19162;48.254;11.454;2023-06-14T01:31:18;5.30;;;4.22;;
32812;SDS011;19162;48.254;11.454;2023-06-14T01:34:19;4.57;;;4.28;;
32812;SDS011;19162;48.254;11.454;2023-06-14T01:37:20;4.82;;;4.43;;
32812;SDS011;19162;48.254;11.454;2023-06-14T01:40:21;5.80;;;4.78;;
32812;SDS011;19162;48.254;11.454;2023-06-14T01:43:22;4.25;;;3.85;;
32812;SDS011;19162;48.254;11.454;2023-06-14T01:46:23;5.25;;;4.82;;
32812;SDS011;19162;48.254;11.454;2023-06-14T01:49:24;6.22;;;4.35;;
32812;SDS011;19162;48.254;11.454;2023-06-14T01:52:24;5.45;;;4.18;;
32812;SDS011;19162;48.254;11.454;2023-06-14T01:55:24;5.30;;;4.85;;
32812;SDS011;19162;48.254;11.454;2023-06-14T01:58:24;7.93;;;4.70;;
32812;SDS011;19162;48.254;11.454;2023-06-14T02:01:26;7.00;;;5.05;;
32812;SDS011;19162;48.254;11.454;2023-06-14T02:04:26;5.43;;;4.93;;
32812;SDS011;19162;48.254;11.454;2023-06-14T02:07:26;5.83;;;5.13;;
32812;SDS011;19162;48.254;11.454;2023-06-14T02:10:27;6.83;;;4.53;;
32812;SDS011;19162;48.254;11.454;2023-06-14T02:13:27;5.00;;;4.57;;
32812;SDS011;19162;48.254;11.454;2023-06-14T02:16:27;4.78;;;4.35;;
32812;SDS011;19162;48.254;11.454;2023-06-14T02:19:29;5.13;;;3.95;;
32812;SDS011;19162;48.254;11.454;2023-06-14T02:22:30;7.60;;;4.68;;
32812;SDS011;19162;48.254;11.454;2023-06-14T02:25:30;5.97;;;4.88;;
32812;SDS011;19162;48.254;11.454;2023-06-14T02:28:30;7.70;;;4.67;;
32812;SDS011;19162;48.254;11.454;2023-06-14T02:31:31;5.65;;;4.88;;
32812;SDS011;19162;48.254;11.454;2023-06-14T02:34:31;5.65;;;5.00;;
32812;SDS011;19162;48.254;11.454;2023-06-14T02:37:31;8.60;;;4.73;;
32812;SDS011;19162;48.254;11.454;2023-06-14T02:40:31;5.38;;;4.97;;
32812;SDS011;19162;48.254;11.454;2023-06-14T02:43:32;5.00;;;4.60;;
32812;SDS011;19162;48.254;11.454;2023-06-14T02:46:32;5.18;;;4.68;;
32812;SDS011;19162;48.254;11.454;2023-06-14T02:49:32;5.03;;;4.57;;
32812;SDS011;19162;48.254;11.454;2023-06-14T02:52:33;6.00;;;5.47;;
32812;SDS011;19162;48.254;11.454;2023-06-14T02:55:33;5.82;;;5.00;;
32812;SDS011;19162;48.254;11.454;2023-06-14T02:58:33;5.90;;;4.53;;
32812;SDS011;19162;48.254;11.454;2023-06-14T03:01:33;5.95;;;5.45;;
32812;SDS011;19162;48.254;11.454;2023-06-14T03:04:34;6.60;;;5.35;;
32812;SDS011;19162;48.254;11.454;2023-06-14T03:07:37;5.85;;;5.20;;
32812;SDS011;19162;48.254;11.454;2023-06-14T03:10:40;5.13;;;4.72;;
32812;SDS011;19162;48.254;11.454;2023-06-14T03:13:41;7.00;;;5.60;;
32812;SDS011;19162;48.254;11.454;2023-06-14T03:16:41;6.70;;;6.10;;
32812;SDS011;19162;48.254;11.454;2023-06-14T03:19:41;5.97;;;4.57;;
32812;SDS011;19162;48.254;11.454;2023-06-14T03:22:41;5.43;;;4.93;;
32812;SDS011;19162;48.254;11.454;2023-06-14T03:25:41;6.03;;;5.43;;
32812;SDS011;19162;48.254;11.454;2023-06-14T03:28:42;6.05;;;5.22;;
32812;SDS011;19162;48.254;11.454;2023-06-14T03:31:55;7.00;;;5.67;;
32812;SDS011;19162;48.254;11.454;2023-06-14T03:34:56;8.48;;;6.10;;
32812;SDS011;19162;48.254;11.454;2023-06-14T03:37:56;6.17;;;5.57;;
32812;SDS011;19162;48.254;11.454;2023-06-14T03:40:56;8.13;;;5.70;;
32812;SDS011;19162;48.254;11.454;2023-06-14T03:43:56;5.57;;;4.93;;
32812;SDS011;19162;48.254;11.454;2023-06-14T03:46:56;6.15;;;5.60;;
32812;SDS011;19162;48.254;11.454;2023-06-14T03:49:57;7.03;;;5.68;;
32812;SDS011;19162;48.254;11.454;2023-06-14T03:52:57;6.10;;;5.60;;
32812;SDS011;19162;48.254;11.454;2023-06-14T03:55:57;6.22;;;5.38;;
32812;SDS011;19162;48.254;11.454;2023-06-14T03:58:57;6.17;;;5.27;;
32812;SDS011;19162;48.254;11.454;2023-06-14T04:01:58;6.03;;;5.53;;
32812;SDS011;19162;48.254;11.454;2023-06-14T04:04:58;6.38;;;5.78;;
32812;SDS011;19162;48.254;11.454;2023-06-14T04:07:58;7.07;;;5.68;;
32812;SDS011;19162;48.254;11.454;2023-06-14T04:10:58;5.77;;;5.27;;
32812;SDS011;19162;48.254;11.454;2023-06-14T04:13:59;7.18;;;5.97;;
32812;SDS011;19162;48.254;11.454;2023-06-14T04:16:59;6.60;;;5.93;;
32812;SDS011;19162;48.254;11.454;2023-06-14T04:20:00;8.77;;;6.50;;
32812;SDS011;19162;48.254;11.454;2023-06-14T04:23:16;6.35;;;5.65;;
32812;SDS011;19162;48.254;11.454;2023-06-14T04:26:18;9.70;;;5.60;;
32812;SDS011;19162;48.254;11.454;2023-06-14T04:29:19;7.60;;;6.90;;
32812;SDS011;19162;48.254;11.454;2023-06-14T04:32:20;6.70;;;6.10;;
32812;SDS011;19162;48.254;11.454;2023-06-14T04:35:21;6.47;;;5.82;;
32812;SDS011;19162;48.254;11.454;2023-06-14T04:38:23;7.10;;;5.80;;
32812;SDS011;19162;48.254;11.454;2023-06-14T04:41:25;5.95;;;5.28;;
32812;SDS011;19162;48.254;11.454;2023-06-14T04:44:30;11.38;;;6.22;;
32812;SDS011;19162;48.254;11.454;2023-06-14T04:47:31;8.23;;;5.50;;
32812;SDS011;19162;48.254;11.454;2023-06-14T04:50:32;6.28;;;5.43;;
32812;SDS011;19162;48.254;11.454;2023-06-14T04:53:32;6.25;;;5.65;;
32812;SDS011;19162;48.254;11.454;2023-06-14T04:56:34;6.00;;;5.43;;
32812;SDS011;19162;48.254;11.454;2023-06-14T04:59:34;8.40;;;5.88;;
32812;SDS011;19162;48.254;11.454;2023-06-14T05:02:35;5.82;;;5.25;;
32812;SDS011;19162;48.254;11.454;2023-06-14T05:05:37;6.03;;;5.50;;
32812;SDS011;19162;48.254;11.454;2023-06-14T05:08:37;5.78;;;5.22;;
32812;SDS011;19162;48.254;11.454;2023-06-14T05:11:38;5.87;;;5.00;;
32812;SDS011;19162;48.254;11.454;2023-06-14T05:14:38;5.47;;;4.97;;
32812;SDS011;19162;48.254;11.454;2023-06-14T05:17:39;6.88;;;5.88;;
32812;SDS011;19162;48.254;11.454;2023-06-14T05:20:41;7.82;;;5.93;;
32812;SDS011;19162;48.254;11.454;2023-06-14T05:23:44;5.57;;;5.07;;
32812;SDS011;19162;48.254;11.454;2023-06-14T05:26:45;6.22;;;5.55;;
32812;SDS011;19162;48.254;11.454;2023-06-14T05:29:45;7.45;;;5.35;;
32812;SDS011;19162;48.254;11.454;2023-06-14T05:32:45;6.53;;;5.60;;
32812;SDS011;19162;48.254;11.454;2023-06-14T05:35:45;9.10;;;5.53;;
32812;SDS011;19162;48.254;11.454;2023-06-14T05:38:46;7.57;;;5.95;;
32812;SDS011;19162;48.254;11.454;2023-06-14T05:41:47;6.40;;;5.38;;
32812;SDS011;19162;48.254;11.454;2023-06-14T05:44:47;6.20;;;4.63;;
32812;SDS011;19162;48.254;11.454;2023-06-14T05:47:47;6.10;;;5.60;;
32812;SDS011;19162;48.254;11.454;2023-06-14T05:50:47;7.90;;;5.38;;
32812;SDS011;19162;48.254;11.454;2023-06-14T05:53:48;10.20;;;5.20;;
32812;SDS011;19162;48.254;11.454;2023-06-14T05:56:48;6.35;;;5.00;;
32812;SDS011;19162;48.254;11.454;2023-06-14T05:59:48;6.50;;;4.93;;
32812;SDS011;19162;48.254;11.454;2023-06-14T06:02:48;5.60;;;4.70;;
32812;SDS011;19162;48.254;11.454;2023-06-14T06:05:49;5.28;;;4.82;;
32812;SDS011;19162;48.254;11.454;2023-06-14T06:08:49;5.22;;;4.75;;
32812;SDS011;19162;48.254;11.454;2023-06-14T06:11:49;5.20;;;4.22;;
32812;SDS011;19162;48.254;11.454;2023-06-14T06:14:50;4.90;;;4.40;;
32812;SDS011;19162;48.254;11.454;2023-06-14T06:17:50;9.30;;;4.17;;
32812;SDS011;19162;48.254;11.454;2023-06-14T06:20:51;4.80;;;4.40;;
32812;SDS011;19162;48.254;11.454;2023-06-14T06:23:51;6.57;;;4.43;;
32812;SDS011;19162;48.254;11.454;2023-06-14T06:26:51;6.13;;;4.90;;
32812;SDS011;19162;48.254;11.454;2023-06-14T06:29:51;6.43;;;5.00;;
32812;SDS011;19162;48.254;11.454;2023-06-14T06:32:51;5.35;;;4.13;;
32812;SDS011;19162;48.254;11.454;2023-06-14T06:35:53;9.05;;;4.78;;
32812;SDS011;19162;48.254;11.454;2023-06-14T06:38:53;5.95;;;4.28;;
32812;SDS011;19162;48.254;11.454;2023-06-14T06:41:53;5.50;;;4.18;;
32812;SDS011;19162;48.254;11.454;2023-06-14T06:44:53;7.00;;;4.63;;
32812;SDS011;19162;48.254;11.454;2023-06-14T06:47:53;5.47;;;4.72;;
32812;SDS011;19162;48.254;11.454;2023-06-14T06:50:54;5.37;;;4.50;;
32812;SDS011;19162;48.254;11.454;2023-06-14T06:53:55;4.97;;;4.47;;
32812;SDS011;19162;48.254;11.454;2023-06-14T06:56:55;6.85;;;5.13;;
32812;SDS011;19162;48.254;11.454;2023-06-14T06:59:55;6.23;;;4.80;;
32812;SDS011;19162;48.254;11.454;2023-06-14T07:02:55;10.80;;;5.10;;
32812;SDS011;19162;48.254;11.454;2023-06-14T07:05:56;6.38;;;4.70;;
32812;SDS011;19162;48.254;11.454;2023-06-14T07:08:57;6.67;;;4.40;;
32812;SDS011;19162;48.254;11.454;2023-06-14T07:12:01;5.35;;;4.32;;
32812;SDS011;19162;48.254;11.454;2023-06-14T07:15:01;4.45;;;4.10;;
32812;SDS011;19162;48.254;11.454;2023-06-14T07:18:01;5.23;;;4.10;;
32812;SDS011;19162;48.254;11.454;2023-06-14T07:21:02;3.83;;;3.53;;
32812;SDS011;19162;48.254;11.454;2023-06-14T07:24:04;4.13;;;3.50;;
32812;SDS011;19162;48.254;11.454;2023-06-14T07:27:04;7.10;;;4.10;;
32812;SDS011;19162;48.254;11.454;2023-06-14T07:30:04;4.15;;;3.58;;
32812;SDS011;19162;48.254;11.454;2023-06-14T07:33:05;6.10;;;3.75;;
32812;SDS011;19162;48.254;11.454;2023-06-14T07:36:05;6.05;;;3.80;;
32812;SDS011;19162;48.254;11.454;2023-06-14T07:39:06;5.37;;;3.87;;
32812;SDS011;19162;48.254;11.454;2023-06-14T07:42:06;5.80;;;4.32;;
32812;SDS011;19162;48.254;11.454;2023-06-14T07:45:06;5.27;;;4.77;;
32812;SDS011;19162;48.254;11.454;2023-06-14T07:48:07;7.82;;;4.20;;
32812;SDS011;19162;48.254;11.454;2023-06-14T07:51:07;6.10;;;3.90;;
32812;SDS011;19162;48.254;11.454;2023-06-14T07:54:07;13.65;;;4.07;;
32812;SDS011;19162;48.254;11.454;2023-06-14T07:57:08;4.60;;;4.03;;
32812;SDS011;19162;48.254;11.454;2023-06-14T08:00:08;4.20;;;3.80;;
32812;SDS011;19162;48.254;11.454;2023-06-14T08:03:11;4.15;;;3.65;;
32812;SDS011;19162;48.254;11.454;2023-06-14T08:06:11;5.57;;;3.92;;
32812;SDS011;19162;48.254;11.454;2023-06-14T08:09:12;5.70;;;3.57;;
32812;SDS011;19162;48.254;11.454;2023-06-14T08:12:13;6.95;;;3.88;;
32812;SDS011;19162;48.254;11.454;2023-06-14T08:15:13;8.47;;;4.00;;
32812;SDS011;19162;48.254;11.454;2023-06-14T08:18:13;6.73;;;4.23;;
32812;SDS011;19162;48.254;11.454;2023-06-14T08:21:13;4.95;;;3.65;;
32812;SDS011;19162;48.254;11.454;2023-06-14T08:24:14;4.10;;;3.78;;
32812;SDS011;19162;48.254;11.454;2023-06-14T08:27:15;3.70;;;3.03;;
32812;SDS011;19162;48.254;11.454;2023-06-14T08:30:15;4.28;;;3.88;;
32812;SDS011;19162;48.254;11.454;2023-06-14T08:33:17;4.70;;;3.42;;
32812;SDS011;19162;48.254;11.454;2023-06-14T08:36:17;3.50;;;3.20;;
32812;SDS011;19162;48.254;11.454;2023-06-14T08:39:17;5.45;;;3.85;;
32812;SDS011;19162;48.254;11.454;2023-06-14T08:42:17;4.85;;;3.45;;
32812;SDS011;19162;48.254;11.454;2023-06-14T08:45:19;5.82;;;3.65;;
32812;SDS011;19162;48.254;11.454;2023-06-14T08:48:20;7.15;;;3.45;;
32812;SDS011;19162;48.254;11.454;2023-06-14T08:51:22;3.67;;;3.33;;
32812;SDS011;19162;48.254;11.454;2023-06-14T08:54:28;6.07;;;3.87;;
32812;SDS011;19162;48.254;11.454;2023-06-14T08:57:30;5.10;;;3.53;;
32812;SDS011;19162;48.254;11.454;2023-06-14T09:00:31;3.75;;;3.13;;
32812;SDS011;19162;48.254;11.454;2023-06-14T09:03:33;5.47;;;3.10;;
32812;SDS011;19162;48.254;11.454;2023-06-14T09:06:33;4.60;;;3.13;;
32812;SDS011;19162;48.254;11.454;2023-06-14T09:09:33;4.17;;;3.77;;
32812;SDS011;19162;48.254;11.454;2023-06-14T09:12:38;5.93;;;3.40;;
32812;SDS011;19162;48.254;11.454;2023-06-14T09:15:39;5.53;;;3.40;;
32812;SDS011;19162;48.254;11.454;2023-06-14T09:18:43;4.80;;;3.63;;
32812;SDS011;19162;48.254;11.454;2023-06-14T09:21:44;5.88;;;3.50;;
32812;SDS011;19162;48.254;11.454;2023-06-14T09:27:47;4.97;;;3.72;;
32812;SDS011;19162;48.254;11.454;2023-06-14T09:30:48;4.28;;;3.17;;
32812;SDS011;19162;48.254;11.454;2023-06-14T09:33:48;4.40;;;4.00;;
32812;SDS011;19162;48.254;11.454;2023-06-14T09:36:49;7.10;;;3.72;;
32812;SDS011;19162;48.254;11.454;2023-06-14T09:39:50;4.28;;;3.50;;
32812;SDS011;19162;48.254;11.454;2023-06-14T09:42:51;4.00;;;3.60;;
32812;SDS011;19162;48.254;11.454;2023-06-14T09:45:51;3.47;;;3.22;;
32812;SDS011;19162;48.254;11.454;2023-06-14T09:48:51;4.13;;;3.77;;
32812;SDS011;19162;48.254;11.454;2023-06-14T09:51:51;4.15;;;3.28;;
32812;SDS011;19162;48.254;11.454;2023-06-14T09:54:53;6.45;;;3.50;;
32812;SDS011;19162;48.254;11.454;2023-06-14T09:57:54;7.05;;;3.55;;
32812;SDS011;19162;48.254;11.454;2023-06-14T10:00:58;3.75;;;3.42;;
32812;SDS011;19162;48.254;11.454;2023-06-14T10:04:03;3.53;;;3.22;;
32812;SDS011;19162;48.254;11.454;2023-06-14T10:07:04;4.38;;;3.55;;
32812;SDS011;19162;48.254;11.454;2023-06-14T10:10:05;3.20;;;2.90;;
32812;SDS011;19162;48.254;11.454;2023-06-14T10:13:06;3.85;;;3.30;;
32812;SDS011;19162;48.254;11.454;2023-06-14T10:16:12;4.18;;;2.90;;
32812;SDS011;19162;48.254;11.454;2023-06-14T10:19:17;5.18;;;3.30;;
32812;SDS011;19162;48.254;11.454;2023-06-14T10:22:32;3.25;;;2.95;;
32812;SDS011;19162;48.254;11.454;2023-06-14T10:25:34;4.65;;;3.42;;
32812;SDS011;19162;48.254;11.454;2023-06-14T10:28:36;8.25;;;3.42;;
32812;SDS011;19162;48.254;11.454;2023-06-14T10:34:42;3.30;;;3.00;;
32812;SDS011;19162;48.254;11.454;2023-06-14T10:37:42;3.67;;;3.30;;
32812;SDS011;19162;48.254;11.454;2023-06-14T10:40:51;4.68;;;3.20;;
32812;SDS011;19162;48.254;11.454;2023-06-14T10:43:52;4.30;;;3.58;;
32812;SDS011;19162;48.254;11.454;2023-06-14T10:46:52;4.00;;;3.60;;
32812;SDS011;19162;48.254;11.454;2023-06-14T10:49:53;3.43;;;3.13;;
32812;SDS011;19162;48.254;11.454;2023-06-14T10:52:54;4.60;;;3.42;;
32812;SDS011;19162;48.254;11.454;2023-06-14T10:55:56;4.40;;;3.40;;
32812;SDS011;19162;48.254;11.454;2023-06-14T10:58:57;5.80;;;4.13;;
32812;SDS011;19162;48.254;11.454;2023-06-14T11:01:58;3.90;;;3.50;;
32812;SDS011;19162;48.254;11.454;2023-06-14T11:05:06;4.93;;;3.25;;
32812;SDS011;19162;48.254;11.454;2023-06-14T11:08:18;7.13;;;3.80;;
32812;SDS011;19162;48.254;11.454;2023-06-14T11:11:22;5.22;;;3.25;;
32812;SDS011;19162;48.254;11.454;2023-06-14T11:14:25;6.07;;;3.30;;
32812;SDS011;19162;48.254;11.454;2023-06-14T11:17:25;4.53;;;3.42;;
32812;SDS011;19162;48.254;11.454;2023-06-14T11:20:26;4.93;;;3.60;;
32812;SDS011;19162;48.254;11.454;2023-06-14T11:23:26;6.28;;;4.00;;
32812;SDS011;19162;48.254;11.454;2023-06-14T11:26:27;4.07;;;3.72;;
32812;SDS011;19162;48.254;11.454;2023-06-14T11:29:28;6.45;;;3.60;;
32812;SDS011;19162;48.254;11.454;2023-06-14T11:32:30;3.92;;;3.03;;
32812;SDS011;19162;48.254;11.454;2023-06-14T11:35:31;4.90;;;3.60;;
32812;SDS011;19162;48.254;11.454;2023-06-14T11:38:34;3.97;;;3.67;;
32812;SDS011;19162;48.254;11.454;2023-06-14T11:41:44;3.55;;;3.25;;
32812;SDS011;19162;48.254;11.454;2023-06-14T11:44:48;5.88;;;4.20;;
32812;SDS011;19162;48.254;11.454;2023-06-14T11:47:48;3.58;;;3.35;;
32812;SDS011;19162;48.254;11.454;2023-06-14T11:50:49;4.50;;;3.80;;
32812;SDS011;19162;48.254;11.454;2023-06-14T11:53:50;3.72;;;3.50;;
32812;SDS011;19162;48.254;11.454;2023-06-14T11:56:50;5.97;;;3.72;;
32812;SDS011;19162;48.254;11.454;2023-06-14T11:59:51;4.40;;;4.00;;
32812;SDS011;19162;48.254;11.454;2023-06-14T12:02:52;3.55;;;3.25;;
32812;SDS011;19162;48.254;11.454;2023-06-14T12:06:06;3.97;;;3.67;;
32812;SDS011;19162;48.254;11.454;2023-06-14T12:09:09;7.30;;;3.40;;
32812;SDS011;19162;48.254;11.454;2023-06-14T12:12:16;6.85;;;4.03;;
32812;SDS011;19162;48.254;11.454;2023-06-14T12:15:17;7.10;;;3.80;;
32812;SDS011;19162;48.254;11.454;2023-06-14T12:18:17;7.10;;;3.30;;
32812;SDS011;19162;48.254;11.454;2023-06-14T12:21:17;3.83;;;3.43;;
32812;SDS011;19162;48.254;11.454;2023-06-14T12:24:23;3.67;;;3.38;;
32812;SDS011;19162;48.254;11.454;2023-06-14T12:27:27;4.40;;;3.97;;
32812;SDS011;19162;48.254;11.454;2023-06-14T12:30:29;4.60;;;4.20;;
32812;SDS011;19162;48.254;11.454;2023-06-14T12:33:29;4.97;;;3.33;;
32812;SDS011;19162;48.254;11.454;2023-06-14T12:36:30;3.30;;;3.10;;
32812;SDS011;19162;48.254;11.454;2023-06-14T12:39:31;4.95;;;3.72;;
32812;SDS011;19162;48.254;11.454;2023-06-14T12:42:32;4.07;;;3.60;;
32812;SDS011;19162;48.254;11.454;2023-06-14T12:45:33;4.50;;;4.10;;
32812;SDS011;19162;48.254;11.454;2023-06-14T12:48:33;3.73;;;3.43;;
32812;SDS011;19162;48.254;11.454;2023-06-14T12:51:34;4.35;;;3.75;;
32812;SDS011;19162;48.254;11.454;2023-06-14T12:54:34;4.13;;;3.45;;
32812;SDS011;19162;48.254;11.454;2023-06-14T12:57:35;4.68;;;3.58;;
32812;SDS011;19162;48.254;11.454;2023-06-14T13:00:36;3.83;;;3.40;;
32812;SDS011;19162;48.254;11.454;2023-06-14T13:03:37;5.55;;;3.72;;
32812;SDS011;19162;48.254;11.454;2023-06-14T13:06:37;3.95;;;3.65;;
32812;SDS011;19162;48.254;11.454;2023-06-14T13:09:37;3.70;;;3.40;;
32812;SDS011;19162;48.254;11.454;2023-06-14T13:12:37;3.77;;;3.47;;
32812;SDS011;19162;48.254;11.454;2023-06-14T13:15:37;4.50;;;3.70;;
32812;SDS011;19162;48.254;11.454;2023-06-14T13:18:38;4.80;;;3.50;;
32812;SDS011;19162;48.254;11.454;2023-06-14T13:21:38;8.18;;;3.22;;
32812;SDS011;19162;48.254;11.454;2023-06-14T13:24:38;4.05;;;3.67;;
32812;SDS011;19162;48.254;11.454;2023-06-14T13:27:39;3.37;;;3.17;;
32812;SDS011;19162;48.254;11.454;2023-06-14T13:30:39;3.17;;;2.93;;
32812;SDS011;19162;48.254;11.454;2023-06-14T13:33:39;6.15;;;3.00;;
32812;SDS011;19162;48.254;11.454;2023-06-14T13:36:39;3.50;;;3.15;;
32812;SDS011;19162;48.254;11.454;2023-06-14T13:39:39;4.00;;;3.47;;
32812;SDS011;19162;48.254;11.454;2023-06-14T13:42:40;4.20;;;3.40;;
32812;SDS011;19162;48.254;11.454;2023-06-14T13:45:40;4.73;;;3.03;;
32812;SDS011;19162;48.254;11.454;2023-06-14T13:48:40;5.10;;;3.40;;
32812;SDS011;19162;48.254;11.454;2023-06-14T13:51:40;3.67;;;3.30;;
32812;SDS011;19162;48.254;11.454;2023-06-14T13:54:41;3.80;;;3.40;;
32812;SDS011;19162;48.254;11.454;2023-06-14T13:57:42;3.85;;;3.38;;
32812;SDS011;19162;48.254;11.454;2023-06-14T14:00:42;5.07;;;3.50;;
32812;SDS011;19162;48.254;11.454;2023-06-14T14:03:42;3.40;;;3.10;;
32812;SDS011;19162;48.254;11.454;2023-06-14T14:06:43;3.40;;;3.08;;
32812;SDS011;19162;48.254;11.454;2023-06-14T14:09:44;3.40;;;3.10;;
32812;SDS011;19162;48.254;11.454;2023-06-14T14:12:44;5.90;;;3.20;;
32812;SDS011;19162;48.254;11.454;2023-06-14T14:15:45;4.03;;;3.40;;
32812;SDS011;19162;48.254;11.454;2023-06-14T14:18:45;6.70;;;3.10;;
32812;SDS011;19162;48.254;11.454;2023-06-14T14:21:46;4.03;;;3.58;;
32812;SDS011;19162;48.254;11.454;2023-06-14T14:24:46;4.87;;;3.10;;
32812;SDS011;19162;48.254;11.454;2023-06-14T14:27:47;3.38;;;3.08;;
32812;SDS011;19162;48.254;11.454;2023-06-14T14:30:47;4.03;;;3.67;;
32812;SDS011;19162;48.254;11.454;2023-06-14T14:33:47;3.63;;;3.33;;
32812;SDS011;19162;48.254;11.454;2023-06-14T14:36:48;3.33;;;3.07;;
32812;SDS011;19162;48.254;11.454;2023-06-14T14:39:48;3.75;;;3.30;;
32812;SDS011;19162;48.254;11.454;2023-06-14T14:42:49;4.63;;;3.70;;
32812;SDS011;19162;48.254;11.454;2023-06-14T14:45:49;5.03;;;3.45;;
32812;SDS011;19162;48.254;11.454;2023-06-14T14:48:49;3.17;;;2.73;;
32812;SDS011;19162;48.254;11.454;2023-06-14T14:51:49;3.60;;;3.30;;
32812;SDS011;19162;48.254;11.454;2023-06-14T14:54:49;3.07;;;2.77;;
32812;SDS011;19162;48.254;11.454;2023-06-14T14:57:50;6.43;;;3.40;;
32812;SDS011;19162;48.254;11.454;2023-06-14T15:00:50;3.10;;;2.90;;
32812;SDS011;19162;48.254;11.454;2023-06-14T15:03:50;3.60;;;3.30;;
32812;SDS011;19162;48.254;11.454;2023-06-14T15:06:51;3.70;;;3.37;;
32812;SDS011;19162;48.254;11.454;2023-06-14T15:09:51;3.17;;;2.85;;
32812;SDS011;19162;48.254;11.454;2023-06-14T15:12:51;3.53;;;3.10;;
32812;SDS011;19162;48.254;11.454;2023-06-14T15:15:51;5.38;;;3.03;;
32812;SDS011;19162;48.254;11.454;2023-06-14T15:18:51;3.57;;;3.27;;
32812;SDS011;19162;48.254;11.454;2023-06-14T15:21:52;4.43;;;3.10;;
32812;SDS011;19162;48.254;11.454;2023-06-14T15:24:52;4.20;;;2.77;;
32812;SDS011;19162;48.254;11.454;2023-06-14T15:27:52;3.97;;;3.50;;
32812;SDS011;19162;48.254;11.454;2023-06-14T15:30:52;6.20;;;3.05;;
32812;SDS011;19162;48.254;11.454;2023-06-14T15:33:52;3.70;;;3.40;;
32812;SDS011;19162;48.254;11.454;2023-06-14T15:36:53;4.83;;;3.00;;
32812;SDS011;19162;48.254;11.454;2023-06-14T15:39:53;6.70;;;2.60;;
32812;SDS011;19162;48.254;11.454;2023-06-14T15:42:53;4.53;;;3.47;;
32812;SDS011;19162;48.254;11.454;2023-06-14T15:45:53;4.60;;;3.37;;
32812;SDS011;19162;48.254;11.454;2023-06-14T15:48:53;3.27;;;3.07;;
32812;SDS011;19162;48.254;11.454;2023-06-14T15:51:54;3.70;;;3.37;;
32812;SDS011;19162;48.254;11.454;2023-06-14T15:54:55;4.32;;;3.38;;
32812;SDS011;19162;48.254;11.454;2023-06-14T15:57:55;3.75;;;2.75;;
32812;SDS011;19162;48.254;11.454;2023-06-14T16:00:55;5.73;;;2.90;;
32812;SDS011;19162;48.254;11.454;2023-06-14T16:03:55;3.15;;;2.95;;
32812;SDS011;19162;48.254;11.454;2023-06-14T16:06:56;3.47;;;2.92;;
32812;SDS011;19162;48.254;11.454;2023-06-14T16:09:56;3.97;;;3.57;;
32812;SDS011;19162;48.254;11.454;2023-06-14T16:12:56;3.33;;;3.00;;
32812;SDS011;19162;48.254;11.454;2023-06-14T16:15:57;4.50;;;3.30;;
32812;SDS011;19162;48.254;11.454;2023-06-14T16:18:57;3.20;;;3.00;;
32812;SDS011;19162;48.254;11.454;2023-06-14T16:21:58;3.70;;;3.40;;
32812;SDS011;19162;48.254;11.454;2023-06-14T16:24:58;9.83;;;3.87;;
32812;SDS011;19162;48.254;11.454;2023-06-14T16:27:58;3.70;;;3.40;;
32812;SDS011;19162;48.254;11.454;2023-06-14T16:30:58;3.80;;;3.50;;
32812;SDS011;19162;48.254;11.454;2023-06-14T16:33:58;4.93;;;3.03;;
32812;SDS011;19162;48.254;11.454;2023-06-14T16:36:59;3.40;;;3.10;;
32812;SDS011;19162;48.254;11.454;2023-06-14T16:39:59;5.30;;;3.80;;
32812;SDS011;19162;48.254;11.454;2023-06-14T16:42:59;3.60;;;3.30;;
32812;SDS011;19162;48.254;11.454;2023-06-14T16:45:59;6.50;;;3.85;;
32812;SDS011;19162;48.254;11.454;2023-06-14T16:49:00;5.10;;;3.85;;
32812;SDS011;19162;48.254;11.454;2023-06-14T16:52:00;4.28;;;3.30;;
32812;SDS011;19162;48.254;11.454;2023-06-14T16:55:00;3.33;;;2.90;;
32812;SDS011;19162;48.254;11.454;2023-06-14T16:58:01;7.70;;;3.23;;
32812;SDS011;19162;48.254;11.454;2023-06-14T17:01:01;4.07;;;3.40;;
32812;SDS011;19162;48.254;11.454;2023-06-14T17:04:01;4.83;;;3.60;;
32812;SDS011;19162;48.254;11.454;2023-06-14T17:07:02;3.63;;;3.25;;
32812;SDS011;19162;48.254;11.454;2023-06-14T17:10:04;3.63;;;3.20;;
32812;SDS011;19162;48.254;11.454;2023-06-14T17:13:04;4.38;;;3.72;;
32812;SDS011;19162;48.254;11.454;2023-06-14T17:16:04;3.60;;;3.30;;
32812;SDS011;19162;48.254;11.454;2023-06-14T17:19:06;3.75;;;3.40;;
32812;SDS011;19162;48.254;11.454;2023-06-14T17:22:06;4.32;;;3.53;;
32812;SDS011;19162;48.254;11.454;2023-06-14T17:25:07;3.43;;;3.13;;
32812;SDS011;19162;48.254;11.454;2023-06-14T17:28:07;3.50;;;3.25;;
32812;SDS011;19162;48.254;11.454;2023-06-14T17:31:07;4.00;;;3.60;;
32812;SDS011;19162;48.254;11.454;2023-06-14T17:34:08;4.38;;;3.75;;
32812;SDS011;19162;48.254;11.454;2023-06-14T17:37:08;3.92;;;3.60;;
32812;SDS011;19162;48.254;11.454;2023-06-14T17:40:08;3.90;;;3.60;;
32812;SDS011;19162;48.254;11.454;2023-06-14T17:43:09;3.50;;;3.13;;
32812;SDS011;19162;48.254;11.454;2023-06-14T17:46:09;3.57;;;3.27;;
32812;SDS011;19162;48.254;11.454;2023-06-14T17:49:09;4.35;;;3.67;;
32812;SDS011;19162;48.254;11.454;2023-06-14T17:52:10;2.90;;;2.70;;
32812;SDS011;19162;48.254;11.454;2023-06-14T17:55:10;5.95;;;3.67;;
32812;SDS011;19162;48.254;11.454;2023-06-14T17:58:10;4.90;;;3.80;;
32812;SDS011;19162;48.254;11.454;2023-06-14T18:01:10;3.60;;;3.30;;
32812;SDS011;19162;48.254;11.454;2023-06-14T18:04:10;4.70;;;3.73;;